createdAt,value
2022-12-31T00:02:35.000Z,3.02
2022-12-31T00:12:34.000Z,3.1
2022-12-31T00:17:35.000Z,3.1
2022-12-31T00:22:35.000Z,3.3
2022-12-31T00:27:35.000Z,3.39
2022-12-31T00:32:35.000Z,3.45
2022-12-31T00:42:35.000Z,3.45
2022-12-31T00:47:34.000Z,3.37
2022-12-31T00:52:35.000Z,3.5
2022-12-31T00:57:35.000Z,3.51
2022-12-31T01:02:35.000Z,3.51
2022-12-31T01:07:34.000Z,3.46
2022-12-31T01:12:35.000Z,3.5
2022-12-31T01:17:35.000Z,3.5
2022-12-31T01:22:35.000Z,3.49
2022-12-31T01:27:35.000Z,3.37
2022-12-31T01:32:35.000Z,3.23
2022-12-31T01:37:35.000Z,2.93
2022-12-31T01:42:35.000Z,2.67
2022-12-31T01:47:35.000Z,2.58
2022-12-31T01:52:35.000Z,2.71
2022-12-31T01:57:34.000Z,2.84
2022-12-31T02:02:35.000Z,3
2022-12-31T02:07:34.000Z,3.07
2022-12-31T02:12:35.000Z,3.05
2022-12-31T02:17:34.000Z,3.07
2022-12-31T02:22:35.000Z,3.15
2022-12-31T02:27:34.000Z,3.17
2022-12-31T02:32:34.000Z,3.17
2022-12-31T02:37:34.000Z,3.17
2022-12-31T02:42:35.000Z,3.07
2022-12-31T02:47:35.000Z,3.04
2022-12-31T02:52:35.000Z,3.03
2022-12-31T02:57:34.000Z,2.99
2022-12-31T03:02:35.000Z,2.77
2022-12-31T03:07:35.000Z,2.67
2022-12-31T03:12:35.000Z,2.31
2022-12-31T03:17:35.000Z,2.15
2022-12-31T03:22:35.000Z,2.35
2022-12-31T03:27:34.000Z,2.17
2022-12-31T03:32:35.000Z,2.23
2022-12-31T03:37:35.000Z,2.28
2022-12-31T03:42:34.000Z,1.98
2022-12-31T03:52:34.000Z,2.47
2022-12-31T03:57:34.000Z,2.11
2022-12-31T04:02:39.000Z,2.11
2022-12-31T04:07:34.000Z,2.2
2022-12-31T04:12:35.000Z,2.5
2022-12-31T04:17:35.000Z,2.35
2022-12-31T04:22:35.000Z,2.17
2022-12-31T04:27:35.000Z,1.98
2022-12-31T04:32:34.000Z,1.88
2022-12-31T04:37:35.000Z,1.8
2022-12-31T04:42:34.000Z,1.7
2022-12-31T04:47:34.000Z,1.74
2022-12-31T04:52:35.000Z,1.74
2022-12-31T04:57:34.000Z,1.72
2022-12-31T05:07:35.000Z,1.66
2022-12-31T05:12:34.000Z,1.63
2022-12-31T05:17:35.000Z,1.74
2022-12-31T05:22:34.000Z,1.73
2022-12-31T05:27:35.000Z,1.72
2022-12-31T05:32:35.000Z,1.81
2022-12-31T05:37:35.000Z,1.81
2022-12-31T05:42:34.000Z,1.76
2022-12-31T05:47:34.000Z,1.79
2022-12-31T05:52:35.000Z,1.85
2022-12-31T05:57:34.000Z,2.06
2022-12-31T06:02:34.000Z,2.16
2022-12-31T06:12:34.000Z,2.07
2022-12-31T06:17:35.000Z,2.07
2022-12-31T06:22:34.000Z,2.03
2022-12-31T06:27:35.000Z,2.06
2022-12-31T06:32:34.000Z,2.01
2022-12-31T06:37:35.000Z,2.03
2022-12-31T06:42:34.000Z,2.08
2022-12-31T06:47:35.000Z,2.07
2022-12-31T06:52:35.000Z,2.07
2022-12-31T06:57:34.000Z,2.17
2022-12-31T07:02:35.000Z,2.18
2022-12-31T07:07:35.000Z,2.2
2022-12-31T07:12:35.000Z,2.24
2022-12-31T07:17:35.000Z,2.23
2022-12-31T07:22:34.000Z,2.24
2022-12-31T07:27:35.000Z,2.27
2022-12-31T07:32:34.000Z,2.36
2022-12-31T07:37:35.000Z,2.41
2022-12-31T07:42:34.000Z,2.39
2022-12-31T07:47:35.000Z,2.37
2022-12-31T07:52:34.000Z,2.37
2022-12-31T07:57:35.000Z,2.38
2022-12-31T08:02:35.000Z,2.28
2022-12-31T08:07:35.000Z,2.28
2022-12-31T08:12:35.000Z,2.39
2022-12-31T08:17:34.000Z,2.57
2022-12-31T08:22:35.000Z,2.65
2022-12-31T08:27:35.000Z,2.73
2022-12-31T08:32:35.000Z,2.83
2022-12-31T08:37:35.000Z,2.92
2022-12-31T08:42:34.000Z,3.05
2022-12-31T08:47:35.000Z,3.09
2022-12-31T08:52:35.000Z,3.26
2022-12-31T08:57:35.000Z,3.36
2022-12-31T09:02:34.000Z,3.39
2022-12-31T09:07:35.000Z,3.46
2022-12-31T09:12:34.000Z,3.44
2022-12-31T09:17:35.000Z,3.5
2022-12-31T09:22:35.000Z,3.5
2022-12-31T09:27:38.000Z,3.61
2022-12-31T09:32:35.000Z,3.69
2022-12-31T09:37:35.000Z,3.68
2022-12-31T09:42:34.000Z,3.74
2022-12-31T09:47:35.000Z,3.78
2022-12-31T09:52:35.000Z,3.63
2022-12-31T09:57:35.000Z,3.54
2022-12-31T10:02:35.000Z,3.62
2022-12-31T10:07:35.000Z,3.68
2022-12-31T10:12:35.000Z,3.69
2022-12-31T10:17:35.000Z,3.69
2022-12-31T10:22:35.000Z,3.8
2022-12-31T10:27:34.000Z,3.69
2022-12-31T10:32:41.000Z,3.65
2022-12-31T10:37:34.000Z,3.81
2022-12-31T10:42:35.000Z,3.83
2022-12-31T10:47:35.000Z,3.99
2022-12-31T10:52:34.000Z,3.93
2022-12-31T10:57:35.000Z,3.86
2022-12-31T11:02:34.000Z,3.77
2022-12-31T11:07:35.000Z,3.73
2022-12-31T11:12:34.000Z,3.64
2022-12-31T11:17:34.000Z,3.64
2022-12-31T11:22:34.000Z,3.54
2022-12-31T11:27:35.000Z,3.49
2022-12-31T11:32:34.000Z,3.49
2022-12-31T11:37:35.000Z,3.45
2022-12-31T11:42:34.000Z,3.51
2022-12-31T11:47:35.000Z,3.73
2022-12-31T11:52:35.000Z,3.73
2022-12-31T11:57:35.000Z,3.68
2022-12-31T12:02:35.000Z,3.78
2022-12-31T12:07:35.000Z,3.77
2022-12-31T12:12:34.000Z,3.76
2022-12-31T12:17:34.000Z,3.7
2022-12-31T12:22:34.000Z,3.69
2022-12-31T12:32:35.000Z,3.79
2022-12-31T12:37:35.000Z,3.76
2022-12-31T12:42:35.000Z,3.73
2022-12-31T12:47:34.000Z,3.73
2022-12-31T12:52:34.000Z,3.65
2022-12-31T12:57:35.000Z,3.6
2022-12-31T13:02:34.000Z,3.68
2022-12-31T13:07:35.000Z,3.68
2022-12-31T13:12:34.000Z,3.6
2022-12-31T13:17:35.000Z,3.52
2022-12-31T13:22:35.000Z,3.45
2022-12-31T13:27:34.000Z,3.45
2022-12-31T13:32:35.000Z,3.35
2022-12-31T13:47:35.000Z,3.1
2022-12-31T13:52:34.000Z,3.04
2022-12-31T13:57:35.000Z,3.03
2022-12-31T14:02:35.000Z,2.86
2022-12-31T14:07:44.000Z,2.8
2022-12-31T14:12:35.000Z,2.73
2022-12-31T14:17:35.000Z,2.74
2022-12-31T14:27:35.000Z,2.77
2022-12-31T14:32:35.000Z,2.84
2022-12-31T14:37:35.000Z,2.84
2022-12-31T14:42:34.000Z,2.86
2022-12-31T14:47:35.000Z,2.96
2022-12-31T14:52:34.000Z,3.09
2022-12-31T14:57:35.000Z,3.06
2022-12-31T15:02:34.000Z,3.26
2022-12-31T15:07:35.000Z,3.3
2022-12-31T15:12:34.000Z,3.08
2022-12-31T15:17:35.000Z,3.2
2022-12-31T15:22:35.000Z,3.21
2022-12-31T15:27:35.000Z,3.14
2022-12-31T15:32:34.000Z,3.13
2022-12-31T15:37:35.000Z,3.06
2022-12-31T15:42:48.000Z,3.03
2022-12-31T15:47:35.000Z,3.03
2022-12-31T15:52:34.000Z,3.14
2022-12-31T15:57:35.000Z,3.03
2022-12-31T16:02:36.000Z,3.03
2022-12-31T16:07:35.000Z,2.93
2022-12-31T16:12:43.000Z,2.79
2022-12-31T16:17:34.000Z,2.88
2022-12-31T16:22:35.000Z,2.92
2022-12-31T16:27:35.000Z,2.95
2022-12-31T16:32:34.000Z,3
2022-12-31T16:37:35.000Z,3.04
2022-12-31T16:42:34.000Z,3
2022-12-31T16:47:35.000Z,2.98
2022-12-31T16:52:35.000Z,2.93
2022-12-31T16:57:35.000Z,2.97
2022-12-31T17:02:35.000Z,2.97
2022-12-31T17:07:34.000Z,3
2022-12-31T17:12:35.000Z,2.96
2022-12-31T17:17:35.000Z,2.87
2022-12-31T17:22:46.000Z,2.71
2022-12-31T17:27:34.000Z,2.71
2022-12-31T17:32:35.000Z,2.71
2022-12-31T17:37:34.000Z,2.62
2022-12-31T17:42:35.000Z,2.7
2022-12-31T17:47:34.000Z,2.56
2022-12-31T17:52:35.000Z,2.49
2022-12-31T17:57:35.000Z,2.46
2022-12-31T18:02:36.000Z,2.46
2022-12-31T18:07:35.000Z,2.5
2022-12-31T18:12:35.000Z,2.53
2022-12-31T18:17:35.000Z,2.53
2022-12-31T18:22:34.000Z,2.46
2022-12-31T18:27:35.000Z,2.47
2022-12-31T18:32:34.000Z,2.44
2022-12-31T18:37:35.000Z,2.42
2022-12-31T18:42:35.000Z,2.5
2022-12-31T18:47:35.000Z,2.51
2022-12-31T18:52:35.000Z,2.57
2022-12-31T19:07:35.000Z,2.55
2022-12-31T19:12:34.000Z,2.57
2022-12-31T19:17:35.000Z,2.49
2022-12-31T19:22:35.000Z,2.4
2022-12-31T19:27:35.000Z,2.42
2022-12-31T19:32:35.000Z,2.53
2022-12-31T19:37:35.000Z,2.63
2022-12-31T19:42:34.000Z,2.61
2022-12-31T19:47:34.000Z,2.48
2022-12-31T19:52:35.000Z,2.28
2022-12-31T19:57:35.000Z,2.28
2022-12-31T20:02:35.000Z,2.14
2022-12-31T20:07:37.000Z,1.86
2022-12-31T20:12:34.000Z,1.7
2022-12-31T20:17:35.000Z,1.7
2022-12-31T20:22:35.000Z,1.56
2022-12-31T20:27:35.000Z,1.43
2022-12-31T20:32:34.000Z,1.33
2022-12-31T20:37:35.000Z,1.26
2022-12-31T20:42:34.000Z,1.22
2022-12-31T20:47:35.000Z,1.17
2022-12-31T20:52:34.000Z,1.15
2022-12-31T20:57:43.000Z,1.19
2022-12-31T21:02:51.000Z,1.28
2022-12-31T21:07:35.000Z,1.51
2022-12-31T21:12:35.000Z,1.73
2022-12-31T21:17:35.000Z,1.9
2022-12-31T21:22:35.000Z,1.96
2022-12-31T21:27:35.000Z,1.97
2022-12-31T21:32:34.000Z,1.97
2022-12-31T21:38:09.000Z,1.84
2022-12-31T21:42:34.000Z,1.74
2022-12-31T21:47:47.000Z,1.68
2022-12-31T21:52:35.000Z,1.61
2022-12-31T21:57:35.000Z,1.7
2022-12-31T22:02:35.000Z,1.82
2022-12-31T22:12:35.000Z,2.11
2022-12-31T22:17:34.000Z,2.15
2022-12-31T22:22:35.000Z,2.26
2022-12-31T22:27:39.000Z,2.28
2022-12-31T22:32:35.000Z,2.16
2022-12-31T22:38:06.000Z,2.1
2022-12-31T22:42:34.000Z,2.06
2022-12-31T22:47:35.000Z,2.01
2022-12-31T22:52:34.000Z,2.01
2022-12-31T22:57:35.000Z,1.93
2022-12-31T23:02:34.000Z,1.9
2022-12-31T23:07:35.000Z,1.8
2022-12-31T23:12:34.000Z,1.7
2022-12-31T23:17:41.000Z,1.7
2022-12-31T23:22:34.000Z,1.59
2022-12-31T23:27:35.000Z,1.6
2022-12-31T23:32:35.000Z,1.6
2022-12-31T23:42:34.000Z,1.69
2022-12-31T23:47:35.000Z,1.7
2022-12-31T23:57:34.000Z,1.5
